Time;durP1;ratioP1;P1;durP2;ratioP2;P2;SDS_P1;SDS_P2;PMS_P1;PMS_P2;Temp;Humidity;BMP_temperature;BMP_pressure;BME280_temperature;BME280_humidity;BME280_pressure;Samples;Min_cycle;Max_cycle;Signal;HPM_P1;HPM_P2
2023/10/04 00:04:20;;;;;;;14.02;11.48;;;21.50;78.40;;;;;;10983467;32;20014;-74
2023/10/04 00:10:23;;;;;;;15.15;13.00;;;21.50;78.30;;;;;;10969549;32;20357;-74
2023/10/04 00:16:26;;;;;;;13.50;12.10;;;21.40;78.50;;;;;;10982916;32;20160;-70
2023/10/04 00:22:28;;;;;;;13.95;11.73;;;21.50;78.80;;;;;;10983360;32;20337;-70
2023/10/04 00:28:30;;;;;;;15.27;13.48;;;21.50;79.00;;;;;;10982443;32;20014;-70
2023/10/04 00:34:33;;;;;;;15.35;13.80;;;21.50;79.20;;;;;;10970444;32;20033;-70
2023/10/04 00:40:37;;;;;;;14.38;12.85;;;21.50;79.30;;;;;;10982092;32;20073;-70
2023/10/04 00:46:41;;;;;;;14.05;12.57;;;21.50;79.50;;;;;;10981678;32;20048;-70
2023/10/04 00:53:11;;;;;;;15.07;12.50;;;21.50;79.60;;;;;;10981610;32;20026;-70
2023/10/04 00:59:16;;;;;;;16.05;14.40;;;21.50;79.60;;;;;;10981434;32;20041;-70
2023/10/04 01:05:24;;;;;;;15.82;14.13;;;21.50;79.80;;;;;;10982486;32;20393;-70
2023/10/04 01:11:26;;;;;;;21.08;17.20;;;21.50;79.60;;;;;;10967306;32;20053;-70
2023/10/04 01:17:28;;;;;;;17.23;15.52;;;21.50;79.50;;;;;;10977297;32;20019;-70
2023/10/04 01:23:30;;;;;;;18.12;13.35;;;21.50;79.40;;;;;;10967674;32;20052;-70
2023/10/04 01:29:33;;;;;;;16.73;14.18;;;21.60;79.30;;;;;;10981425;32;20026;-70
2023/10/04 01:35:35;;;;;;;21.17;18.95;;;21.60;79.30;;;;;;10980149;32;20054;-70
2023/10/04 01:41:38;;;;;;;25.48;19.42;;;21.50;79.50;;;;;;10980625;32;20018;-70
2023/10/04 01:47:41;;;;;;;19.20;17.08;;;21.50;79.70;;;;;;10975689;32;20376;-70
2023/10/04 01:53:43;;;;;;;18.40;16.33;;;21.60;79.80;;;;;;10979546;32;20019;-70
2023/10/04 01:59:45;;;;;;;19.20;16.55;;;21.50;79.70;;;;;;10980726;32;20046;-70
2023/10/04 02:05:58;;;;;;;21.65;19.35;;;21.60;79.80;;;;;;10965890;32;20401;-70
2023/10/04 02:12:01;;;;;;;22.30;17.92;;;21.60;80.00;;;;;;10979811;32;20022;-70
2023/10/04 02:18:04;;;;;;;20.10;16.17;;;21.60;80.00;;;;;;10978436;32;20018;-70
2023/10/04 02:24:09;;;;;;;19.05;17.05;;;21.60;80.00;;;;;;10979129;32;20049;-70
2023/10/04 02:30:19;;;;;;;20.73;16.77;;;21.60;79.90;;;;;;10979445;32;20045;-70
2023/10/04 02:36:23;;;;;;;21.55;16.25;;;21.50;80.40;;;;;;10980162;32;20019;-70
2023/10/04 02:42:27;;;;;;;20.67;18.30;;;21.50;80.60;;;;;;10978869;32;20371;-70
2023/10/04 02:48:31;;;;;;;23.17;19.67;;;21.50;80.50;;;;;;10965016;32;20356;-70
2023/10/04 02:54:34;;;;;;;23.23;19.42;;;21.50;80.50;;;;;;10979219;32;20401;-70
2023/10/04 03:00:42;;;;;;;23.87;18.45;;;21.50;80.50;;;;;;10985036;32;20015;-70
2023/10/04 03:06:46;;;;;;;;;;;21.50;80.40;;;;;;10986448;32;20337;-70
2023/10/04 03:12:51;;;;;;;20.88;16.65;;;21.50;80.40;;;;;;10986467;32;19922;-69
2023/10/04 03:18:54;;;;;;;21.70;18.40;;;21.40;80.50;;;;;;10985127;32;20027;-70
2023/10/04 03:24:56;;;;;;;22.15;17.27;;;21.50;80.60;;;;;;10985612;32;20392;-70
2023/10/04 03:31:01;;;;;;;17.98;13.30;;;21.40;80.80;;;;;;10984617;32;20018;-70
2023/10/04 03:37:08;;;;;;;21.92;18.90;;;21.40;80.80;;;;;;10971750;32;20325;-70
2023/10/04 03:43:11;;;;;;;21.23;18.58;;;21.50;80.80;;;;;;10971515;32;20049;-70
2023/10/04 03:49:19;;;;;;;23.17;19.80;;;21.40;80.90;;;;;;10971044;32;20077;-70
2023/10/04 03:55:21;;;;;;;22.83;20.58;;;21.40;81.10;;;;;;10971038;32;20325;-70
2023/10/04 04:01:26;;;;;;;16.05;14.35;;;21.40;81.20;;;;;;10984933;32;20041;-70
2023/10/04 04:07:28;;;;;;;21.08;17.08;;;21.40;81.10;;;;;;10983487;32;20325;-70
2023/10/04 04:13:30;;;;;;;21.52;19.05;;;21.50;81.10;;;;;;10983682;32;20433;-70
2023/10/04 04:19:33;;;;;;;20.17;17.48;;;21.50;81.00;;;;;;10983516;32;20026;-70
2023/10/04 04:25:35;;;;;;;24.92;22.23;;;21.50;81.00;;;;;;10978783;32;20118;-70
2023/10/04 04:31:39;;;;;;;17.98;15.43;;;21.40;81.10;;;;;;10983641;32;20049;-71
2023/10/04 04:37:43;;;;;;;21.85;19.50;;;21.40;81.20;;;;;;10982332;32;20019;-71
2023/10/04 04:43:45;;;;;;;22.33;20.00;;;21.40;81.30;;;;;;10981949;32;20058;-70
2023/10/04 04:49:48;;;;;;;24.73;22.08;;;21.40;81.30;;;;;;10981740;32;20392;-71
2023/10/04 04:55:51;;;;;;;27.08;24.33;;;21.40;81.50;;;;;;10981430;32;20023;-70
2023/10/04 05:01:55;;;;;;;27.17;23.35;;;21.30;81.70;;;;;;10981853;32;20444;-70
2023/10/04 05:07:58;;;;;;;29.25;25.37;;;21.30;81.90;;;;;;10981105;32;20023;-70
2023/10/04 05:14:01;;;;;;;28.85;22.62;;;21.30;82.00;;;;;;10977582;32;20022;-71
2023/10/04 05:20:04;;;;;;;27.77;23.10;;;21.30;82.10;;;;;;10979880;32;20049;-71
2023/10/04 05:26:08;;;;;;;25.75;22.73;;;21.30;82.20;;;;;;10980975;32;20019;-70
2023/10/04 05:32:10;;;;;;;26.52;23.38;;;21.30;82.40;;;;;;10980810;32;20543;-70
2023/10/04 05:38:14;;;;;;;29.55;23.55;;;21.30;82.30;;;;;;10979931;32;20019;-70
2023/10/04 05:44:16;;;;;;;25.73;22.92;;;21.30;82.50;;;;;;10979915;32;20019;-70
2023/10/04 05:50:22;;;;;;;24.15;21.58;;;21.30;82.50;;;;;;10979571;32;20022;-70
2023/10/04 05:56:25;;;;;;;26.55;23.85;;;21.30;82.60;;;;;;10965836;32;20030;-70
2023/10/04 06:02:27;;;;;;;24.52;21.90;;;21.30;82.70;;;;;;10979649;32;20045;-70
2023/10/04 06:08:29;;;;;;;31.65;22.85;;;21.30;82.70;;;;;;10976412;32;20053;-70
2023/10/04 06:14:32;;;;;;;25.52;22.08;;;21.30;82.70;;;;;;10974684;32;20356;-70
2023/10/04 06:20:36;;;;;;;25.85;23.08;;;21.30;82.80;;;;;;10974123;32;20048;-70
2023/10/04 06:26:38;;;;;;;25.62;19.33;;;21.30;82.90;;;;;;10971124;32;20434;-70
2023/10/04 06:32:40;;;;;;;20.12;16.70;;;21.30;83.00;;;;;;10979224;32;20030;-70
2023/10/04 06:38:42;;;;;;;28.42;18.40;;;21.30;83.00;;;;;;10972331;32;20045;-70
2023/10/04 06:44:45;;;;;;;20.85;17.90;;;21.30;82.90;;;;;;10987523;32;20077;-70
2023/10/04 06:50:49;;;;;;;26.00;21.50;;;21.40;82.80;;;;;;10949261;27;20244;-71
2023/10/04 06:57:13;;;;;;;17.62;15.73;;;21.40;82.80;;;;;;10948711;32;20319;-70
2023/10/04 07:03:15;;;;;;;24.33;19.35;;;21.50;82.70;;;;;;10947996;32;20015;-72
2023/10/04 07:09:17;;;;;;;24.12;20.10;;;21.40;82.90;;;;;;10947701;32;20038;-72
2023/10/04 07:15:20;;;;;;;22.35;19.20;;;21.40;83.10;;;;;;10948627;32;20045;-71
2023/10/04 07:21:23;;;;;;;16.17;14.52;;;21.30;83.10;;;;;;10949136;32;20279;-72
2023/10/04 07:27:25;;;;;;;21.67;19.48;;;21.30;83.10;;;;;;10947264;32;20015;-71
2023/10/04 07:33:27;;;;;;;21.15;18.95;;;21.30;83.00;;;;;;10947050;32;20019;-70
2023/10/04 07:39:30;;;;;;;17.05;13.30;;;21.30;83.00;;;;;;10945915;32;20019;-71
2023/10/04 07:45:32;;;;;;;21.62;19.12;;;21.30;83.00;;;;;;10946106;32;20011;-71
2023/10/04 07:51:34;;;;;;;20.67;18.45;;;21.30;83.20;;;;;;10848375;32;20051;-71
2023/10/04 07:57:41;;;;;;;23.23;18.40;;;21.30;83.40;;;;;;10828150;33;20046;-72
2023/10/04 08:03:43;;;;;;;14.82;12.82;;;21.40;83.40;;;;;;10828531;33;20386;-71
2023/10/04 08:09:45;;;;;;;17.85;12.10;;;21.50;83.30;;;;;;10814426;33;20032;-71
2023/10/04 08:15:48;;;;;;;16.90;14.90;;;21.50;83.10;;;;;;10825427;33;20051;-71
2023/10/04 08:21:50;;;;;;;18.05;16.15;;;21.70;83.00;;;;;;10828443;33;20000;-70
2023/10/04 08:27:52;;;;;;;19.00;16.83;;;21.60;82.90;;;;;;10828340;33;20038;-70
2023/10/04 08:33:55;;;;;;;16.45;14.73;;;21.70;82.80;;;;;;10826822;33;20024;-70
2023/10/04 08:40:25;;;;;;;27.15;16.87;;;21.70;82.80;;;;;;10813764;33;20039;-71
2023/10/04 08:46:28;;;;;;;20.70;18.08;;;21.80;82.70;;;;;;10813003;33;20043;-70
2023/10/04 08:52:35;;;;;;;19.23;17.25;;;21.80;82.60;;;;;;10826192;33;20046;-70
2023/10/04 08:58:40;;;;;;;17.70;14.67;;;21.80;82.60;;;;;;10826150;32;20066;-70
2023/10/04 09:04:43;;;;;;;18.92;15.10;;;21.80;82.50;;;;;;10822656;33;20121;-70
2023/10/04 09:10:45;;;;;;;19.87;13.25;;;21.90;82.40;;;;;;10826853;33;20023;-71
2023/10/04 09:17:13;;;;;;;16.37;13.77;;;21.90;82.10;;;;;;10825550;33;20093;-70
2023/10/04 09:23:20;;;;;;;18.42;15.10;;;22.10;81.80;;;;;;10812798;33;20054;-70
2023/10/04 09:29:29;;;;;;;16.00;14.27;;;22.20;81.70;;;;;;10825193;33;20051;-71
2023/10/04 09:36:04;;;;;;;15.07;12.07;;;22.20;81.60;;;;;;10825678;33;20016;-70
2023/10/04 09:42:14;;;;;;;19.27;15.43;;;22.30;81.20;;;;;;10823882;33;20063;-71
2023/10/04 09:48:21;;;;;;;15.48;13.18;;;22.40;81.20;;;;;;10825042;33;20032;-71
2023/10/04 09:54:24;;;;;;;14.03;11.30;;;22.40;81.40;;;;;;10825376;33;20058;-70
2023/10/04 10:00:29;;;;;;;16.55;14.70;;;22.40;81.20;;;;;;10822747;33;20071;-71
2023/10/04 10:06:39;;;;;;;15.15;13.55;;;22.50;81.20;;;;;;10824541;33;20024;-70
2023/10/04 10:12:43;;;;;;;15.60;13.35;;;22.40;81.20;;;;;;10825511;33;20420;-70
2023/10/04 10:18:47;;;;;;;12.73;11.15;;;22.40;81.20;;;;;;10822639;33;20028;-70
2023/10/04 10:24:55;;;;;;;15.52;12.70;;;22.30;81.30;;;;;;10822771;33;20024;-71
2023/10/04 10:31:06;;;;;;;;;;;22.30;81.20;;;;;;10822534;33;20307;-70
2023/10/04 10:37:22;;;;;;;14.63;11.43;;;22.30;81.30;;;;;;10825049;33;19965;-75
2023/10/04 10:43:24;;;;;;;11.75;10.15;;;22.30;81.30;;;;;;10823568;33;20043;-74
2023/10/04 10:49:51;;;;;;;14.57;12.10;;;22.30;81.30;;;;;;10823745;33;20082;-75
2023/10/04 10:55:54;;;;;;;13.77;11.63;;;22.30;81.40;;;;;;10823832;33;20016;-74
2023/10/04 11:01:57;;;;;;;17.00;13.05;;;22.20;81.40;;;;;;10810473;33;20024;-75
2023/10/04 11:07:59;;;;;;;13.20;11.80;;;22.20;81.40;;;;;;10818644;33;20036;-75
2023/10/04 11:14:06;;;;;;;14.73;11.77;;;22.20;81.30;;;;;;10822363;33;20024;-75
2023/10/04 11:20:11;;;;;;;19.40;14.05;;;22.20;81.30;;;;;;10823949;32;20047;-75
2023/10/04 11:26:14;;;;;;;17.77;13.75;;;22.10;81.40;;;;;;10829488;33;20398;-75
2023/10/04 11:32:17;;;;;;;15.27;13.07;;;22.00;81.70;;;;;;10829922;33;20024;-76
2023/10/04 11:38:19;;;;;;;14.82;13.13;;;22.00;82.00;;;;;;10827612;33;20028;-75
2023/10/04 11:44:21;;;;;;;14.32;12.73;;;22.00;81.90;;;;;;10814828;33;20418;-75
2023/10/04 11:50:23;;;;;;;17.25;15.35;;;22.00;81.90;;;;;;10828032;33;20190;-76
2023/10/04 11:56:26;;;;;;;17.35;15.00;;;22.00;81.90;;;;;;10828335;33;20039;-77
2023/10/04 12:02:33;;;;;;;13.50;11.98;;;22.10;82.00;;;;;;10814677;33;20028;-76
2023/10/04 12:08:42;;;;;;;;;;;22.10;81.90;;;;;;10829083;33;20094;-75
2023/10/04 12:14:45;;;;;;;17.37;12.40;;;22.20;81.80;;;;;;10828571;33;20413;-76
2023/10/04 12:20:48;;;;;;;13.43;11.52;;;22.30;82.10;;;;;;10827301;33;20074;-76
2023/10/04 12:26:55;;;;;;;16.60;14.80;;;22.30;81.90;;;;;;10827123;33;20051;-77
2023/10/04 12:32:59;;;;;;;16.73;13.70;;;22.40;81.60;;;;;;10827102;32;20464;-77
2023/10/04 12:39:06;;;;;;;15.20;13.70;;;22.50;81.40;;;;;;10826772;33;20433;-76
2023/10/04 12:45:10;;;;;;;16.45;13.43;;;22.80;81.20;;;;;;10827136;33;20015;-75
2023/10/04 12:51:12;;;;;;;16.23;13.57;;;23.10;80.60;;;;;;10823211;33;20028;-74
2023/10/04 12:57:15;;;;;;;14.65;11.07;;;23.30;80.10;;;;;;10808726;33;20031;-75
2023/10/04 13:03:17;;;;;;;15.35;11.95;;;23.50;79.40;;;;;;10826205;33;20020;-74
2023/10/04 13:09:26;;;;;;;13.38;10.32;;;23.60;79.00;;;;;;10825891;33;20008;-76
2023/10/04 13:15:29;;;;;;;16.50;9.50;;;23.60;78.50;;;;;;10812000;33;20456;-74
2023/10/04 13:21:31;;;;;;;12.20;9.75;;;23.70;78.10;;;;;;10825877;33;20024;-75
2023/10/04 13:27:33;;;;;;;12.65;9.07;;;23.70;78.00;;;;;;10829003;32;20055;-74
2023/10/04 13:33:35;;;;;;;10.73;6.40;;;23.60;77.60;;;;;;10812007;33;20015;-73
2023/10/04 13:39:37;;;;;;;8.32;6.15;;;23.60;77.80;;;;;;10824952;32;20064;-74
2023/10/04 13:45:39;;;;;;;8.27;5.97;;;23.70;77.60;;;;;;10810843;33;20032;-73
2023/10/04 13:51:53;;;;;;;10.23;6.62;;;23.70;77.60;;;;;;10811528;33;20369;-73
2023/10/04 13:57:55;;;;;;;13.45;8.35;;;23.70;77.50;;;;;;10821953;33;20310;-72
2023/10/04 14:04:00;;;;;;;11.25;7.55;;;23.70;77.30;;;;;;10802925;32;20087;-72
2023/10/04 14:10:03;;;;;;;12.13;6.20;;;23.80;76.90;;;;;;10774466;33;20407;-73
2023/10/04 14:16:06;;;;;;;9.07;6.40;;;23.80;76.30;;;;;;10774849;33;20021;-72
2023/10/04 14:22:08;;;;;;;6.62;4.50;;;23.90;76.40;;;;;;10774623;32;20448;-73
2023/10/04 14:28:12;;;;;;;16.02;5.97;;;23.90;75.90;;;;;;10787393;33;20047;-73
2023/10/04 14:34:15;;;;;;;6.95;4.85;;;23.80;76.70;;;;;;10783438;33;20417;-72
2023/10/04 14:40:25;;;;;;;8.27;5.25;;;23.60;76.50;;;;;;10784118;33;20025;-74
2023/10/04 14:46:27;;;;;;;8.82;5.20;;;23.50;76.60;;;;;;10787718;33;20066;-73
2023/10/04 14:52:32;;;;;;;7.22;4.90;;;23.40;76.40;;;;;;10976870;27;20431;-72
2023/10/04 14:58:34;;;;;;;6.93;4.72;;;23.30;75.80;;;;;;10986113;32;20015;-73
2023/10/04 15:04:38;;;;;;;7.20;4.45;;;23.20;76.50;;;;;;10985439;32;20014;-73
2023/10/04 15:10:45;;;;;;;6.65;3.87;;;23.10;76.20;;;;;;10985757;32;20301;-73
2023/10/04 15:16:49;;;;;;;5.70;3.90;;;23.10;76.40;;;;;;10971785;32;20069;-74
2023/10/04 15:22:52;;;;;;;6.30;4.18;;;23.10;76.30;;;;;;10984343;32;20019;-73
2023/10/04 15:28:54;;;;;;;13.07;4.03;;;23.10;76.50;;;;;;10971745;32;20381;-74
2023/10/04 15:34:58;;;;;;;10.65;4.40;;;23.10;77.30;;;;;;10984249;32;20049;-74
2023/10/04 15:41:08;;;;;;;7.43;3.28;;;23.00;77.00;;;;;;10984228;32;20011;-74
2023/10/04 15:47:10;;;;;;;6.30;3.90;;;23.00;76.80;;;;;;10984472;32;20023;-73
2023/10/04 15:53:12;;;;;;;6.22;3.47;;;22.90;76.90;;;;;;10983536;32;20019;-74
2023/10/04 15:59:14;;;;;;;7.68;3.75;;;22.90;77.00;;;;;;10980662;32;20345;-73
2023/10/04 16:05:17;;;;;;;6.30;3.67;;;22.80;76.80;;;;;;10983731;32;20049;-73
2023/10/04 16:11:20;;;;;;;9.10;3.22;;;22.80;76.90;;;;;;10983094;32;20026;-73
2023/10/04 16:17:24;;;;;;;7.35;4.20;;;22.70;77.20;;;;;;10984051;32;20006;-72
2023/10/04 16:23:28;;;;;;;6.55;4.07;;;22.70;77.20;;;;;;10982679;32;20019;-74
2023/10/04 16:29:31;;;;;;;7.03;4.68;;;22.60;77.30;;;;;;10982932;32;20298;-74
2023/10/04 16:35:33;;;;;;;8.30;3.20;;;22.50;77.40;;;;;;10970306;32;20042;-73
2023/10/04 16:41:35;;;;;;;6.85;3.78;;;22.40;77.70;;;;;;10981753;32;20019;-74
2023/10/04 16:47:38;;;;;;;5.00;2.47;;;22.40;78.10;;;;;;10967966;32;20058;-73
2023/10/04 16:53:41;;;;;;;6.28;3.30;;;22.30;78.20;;;;;;10981542;32;20305;-74
2023/10/04 16:59:45;;;;;;;6.20;3.42;;;22.30;78.60;;;;;;10981427;32;20014;-74
2023/10/04 17:05:47;;;;;;;3.72;2.28;;;22.20;78.80;;;;;;10980888;32;20019;-75
2023/10/04 17:11:49;;;;;;;4.00;2.50;;;22.20;78.90;;;;;;10980070;32;20388;-75
2023/10/04 17:17:52;;;;;;;4.35;2.95;;;22.20;79.00;;;;;;10979885;32;20018;-74
2023/10/04 17:23:54;;;;;;;7.37;2.97;;;22.30;78.90;;;;;;10971312;32;20053;-74
2023/10/04 17:29:56;;;;;;;4.75;3.03;;;22.30;78.90;;;;;;10976160;32;20019;-73
2023/10/04 17:36:33;;;;;;;5.80;2.78;;;22.20;78.90;;;;;;10975411;32;20421;-73
2023/10/04 17:42:44;;;;;;;6.55;3.47;;;22.20;78.50;;;;;;10895252;32;20069;-74
2023/10/04 17:48:47;;;;;;;2.40;2.10;;;22.20;78.60;;;;;;10894565;32;20430;-74
2023/10/04 17:54:51;;;;;;;6.12;2.78;;;22.10;78.70;;;;;;10895212;32;20035;-73
2023/10/04 18:00:53;;;;;;;3.78;2.37;;;22.10;78.60;;;;;;10891727;32;20023;-75
2023/10/04 18:06:55;;;;;;;4.78;2.83;;;22.10;78.60;;;;;;10894920;32;20039;-75
2023/10/04 18:12:59;;;;;;;4.20;2.30;;;22.00;78.40;;;;;;10894898;32;20078;-75
2023/10/04 18:19:01;;;;;;;4.43;2.67;;;22.00;78.10;;;;;;10949555;32;20031;-75
2023/10/04 18:25:06;;;;;;;4.03;2.47;;;22.00;77.90;;;;;;10974780;32;20320;-75
2023/10/04 18:31:11;;;;;;;4.72;2.95;;;22.00;77.70;;;;;;10983035;32;20014;-74
2023/10/04 18:37:14;;;;;;;4.82;2.80;;;21.90;77.70;;;;;;10986486;32;20045;-74
2023/10/04 18:43:16;;;;;;;6.78;3.03;;;21.90;77.40;;;;;;10986250;32;20007;-75
2023/10/04 18:49:22;;;;;;;2.58;1.65;;;21.80;77.60;;;;;;10986339;32;20069;-75
2023/10/04 18:55:26;;;;;;;4.40;2.42;;;21.80;77.70;;;;;;10971595;32;20048;-75
2023/10/04 19:01:28;;;;;;;3.80;1.67;;;21.80;77.50;;;;;;10971586;32;20047;-75
2023/10/04 19:07:31;;;;;;;3.37;2.05;;;21.70;77.40;;;;;;10985157;32;20420;-75
2023/10/04 19:13:34;;;;;;;3.62;2.28;;;21.70;77.30;;;;;;10968159;32;20150;-75
2023/10/04 19:19:37;;;;;;;4.32;2.00;;;21.70;77.50;;;;;;10985542;32;20325;-75
2023/10/04 19:25:39;;;;;;;2.58;2.00;;;21.70;77.60;;;;;;10984895;32;20011;-74
2023/10/04 19:31:43;;;;;;;5.45;2.20;;;21.70;77.90;;;;;;10970900;32;20042;-75
2023/10/04 19:37:46;;;;;;;2.80;1.77;;;21.60;78.00;;;;;;10969684;32;20018;-76
2023/10/04 19:43:49;;;;;;;2.35;1.62;;;21.60;77.80;;;;;;10983493;32;20459;-75
2023/10/04 19:50:05;;;;;;;3.00;1.65;;;21.50;78.00;;;;;;10983581;32;20053;-75
2023/10/04 19:56:07;;;;;;;2.67;1.67;;;21.50;78.00;;;;;;10983715;32;20037;-75
2023/10/04 20:02:10;;;;;;;3.35;1.95;;;21.50;78.20;;;;;;10983230;32;20015;-75
2023/10/04 20:08:14;;;;;;;3.53;2.17;;;21.40;78.00;;;;;;10983084;32;20038;-75
2023/10/04 20:14:18;;;;;;;2.15;1.65;;;21.40;78.10;;;;;;10981261;32;20100;-75
2023/10/04 20:20:23;;;;;;;4.20;2.50;;;21.30;78.00;;;;;;10969134;32;20154;-75
2023/10/04 20:26:26;;;;;;;2.90;1.92;;;21.30;77.90;;;;;;10956359;32;20030;-74
2023/10/04 20:32:28;;;;;;;2.65;1.60;;;21.30;78.10;;;;;;10973821;32;20428;-74
2023/10/04 20:38:31;;;;;;;3.58;1.83;;;21.20;78.30;;;;;;10978773;32;20023;-75
2023/10/04 20:44:41;;;;;;;1.73;1.50;;;21.20;78.60;;;;;;10981335;32;20015;-75
2023/10/04 20:50:44;;;;;;;2.75;1.45;;;21.10;78.60;;;;;;10977233;32;20026;-74
2023/10/04 20:56:46;;;;;;;3.67;1.62;;;21.10;78.80;;;;;;10981002;32;20049;-73
2023/10/04 21:02:48;;;;;;;2.80;1.92;;;21.10;78.90;;;;;;10974616;32;20092;-74
2023/10/04 21:08:51;;;;;;;2.50;1.60;;;21.00;79.10;;;;;;10980346;32;20030;-74
2023/10/04 21:14:53;;;;;;;2.65;1.90;;;21.00;79.10;;;;;;10972612;32;20061;-74
2023/10/04 21:21:04;;;;;;;2.75;2.12;;;21.00;79.20;;;;;;10980229;32;20018;-74
2023/10/04 21:27:06;;;;;;;3.22;2.20;;;21.00;79.30;;;;;;10980093;32;20015;-74
2023/10/04 21:33:18;;;;;;;2.92;1.65;;;20.90;79.40;;;;;;10976964;32;20080;-74
2023/10/04 21:39:28;;;;;;;2.40;2.00;;;20.90;79.90;;;;;;10980756;32;20048;-74
2023/10/04 21:45:33;;;;;;;8.80;2.05;;;20.90;80.00;;;;;;10979667;32;20340;-74
2023/10/04 21:52:15;;;;;;;2.12;1.60;;;20.90;80.20;;;;;;10979961;32;20049;-74
2023/10/04 21:58:19;;;;;;;3.35;1.90;;;20.90;80.20;;;;;;10939045;32;20011;-74
2023/10/04 22:04:48;;;;;;;2.87;1.83;;;20.80;80.30;;;;;;10938699;32;20030;-74
2023/10/04 22:10:55;;;;;;;10.38;2.03;;;20.80;80.30;;;;;;10939646;32;20054;-74
2023/10/04 22:17:33;;;;;;;2.22;1.35;;;20.80;80.40;;;;;;10937151;32;20051;-77
2023/10/04 22:23:38;;;;;;;2.25;1.75;;;20.80;80.60;;;;;;10937674;32;20050;-74
2023/10/04 22:29:40;;;;;;;2.25;1.75;;;20.80;80.70;;;;;;10938754;32;20061;-74
2023/10/04 22:35:43;;;;;;;3.75;2.22;;;20.80;81.00;;;;;;10963009;32;20068;-74
2023/10/04 22:41:47;;;;;;;2.60;1.70;;;20.80;81.20;;;;;;10979458;32;20019;-74
2023/10/04 22:47:50;;;;;;;2.15;1.37;;;20.70;81.20;;;;;;10737444;27;7651644;-75
2023/10/04 22:53:53;;;;;;;2.85;1.80;;;20.70;81.30;;;;;;10978994;32;20045;-74
2023/10/04 22:59:56;;;;;;;6.22;1.50;;;20.70;81.40;;;;;;10978889;32;20037;-75
2023/10/04 23:06:03;;;;;;;2.55;1.80;;;20.60;81.70;;;;;;10980011;32;20419;-75
2023/10/04 23:12:08;;;;;;;4.22;1.73;;;20.50;81.90;;;;;;10979309;32;20049;-74
2023/10/04 23:24:18;;;;;;;;;;;20.50;82.30;;;;;;10985698;32;20193;-74
2023/10/04 23:30:21;;;;;;;2.80;1.60;;;20.50;82.60;;;;;;10971327;32;20308;-74
2023/10/04 23:36:25;;;;;;;2.85;1.83;;;20.50;82.60;;;;;;10985084;32;20401;-74
2023/10/04 23:42:28;;;;;;;3.90;2.30;;;20.50;82.60;;;;;;10984840;32;20019;-74
2023/10/04 23:48:36;;;;;;;2.80;1.53;;;20.50;82.50;;;;;;10933834;32;20409;-74
2023/10/04 23:54:38;;;;;;;2.50;1.67;;;20.50;82.30;;;;;;10828865;33;20319;-74
